sensor_id;sensor_type;location;lat;lon;timestamp;temperature;humidity
10312;DHT22;5201;48.776;9.128;2022-12-07T00:01:12;5.80;99.90
10312;DHT22;5201;48.776;9.128;2022-12-07T00:03:40;5.80;99.90
10312;DHT22;5201;48.776;9.128;2022-12-07T00:06:07;5.70;99.90
10312;DHT22;5201;48.776;9.128;2022-12-07T00:08:34;5.60;99.90
10312;DHT22;5201;48.776;9.128;2022-12-07T00:11:04;5.60;99.90
10312;DHT22;5201;48.776;9.128;2022-12-07T00:13:31;5.60;99.90
10312;DHT22;5201;48.776;9.128;2022-12-07T00:16:01;5.60;99.90
10312;DHT22;5201;48.776;9.128;2022-12-07T00:18:27;5.10;99.90
10312;DHT22;5201;48.776;9.128;2022-12-07T00:20:52;5.20;99.90
10312;DHT22;5201;48.776;9.128;2022-12-07T00:23:18;5.00;99.90
10312;DHT22;5201;48.776;9.128;2022-12-07T00:25:43;4.90;99.90
10312;DHT22;5201;48.776;9.128;2022-12-07T00:28:12;4.60;99.90
10312;DHT22;5201;48.776;9.128;2022-12-07T00:30:37;4.70;99.90
10312;DHT22;5201;48.776;9.128;2022-12-07T00:33:03;4.80;99.90
10312;DHT22;5201;48.776;9.128;2022-12-07T00:35:29;4.80;99.90
10312;DHT22;5201;48.776;9.128;2022-12-07T00:37:54;4.90;99.90
10312;DHT22;5201;48.776;9.128;2022-12-07T00:40:20;4.70;99.90
10312;DHT22;5201;48.776;9.128;2022-12-07T00:42:45;4.90;99.90
10312;DHT22;5201;48.776;9.128;2022-12-07T00:45:11;4.90;99.90
10312;DHT22;5201;48.776;9.128;2022-12-07T00:47:36;5.00;99.90
10312;DHT22;5201;48.776;9.128;2022-12-07T00:50:02;4.80;99.90
10312;DHT22;5201;48.776;9.128;2022-12-07T00:52:28;4.90;99.90
10312;DHT22;5201;48.776;9.128;2022-12-07T00:54:53;5.10;99.90
10312;DHT22;5201;48.776;9.128;2022-12-07T00:57:19;5.30;99.90
10312;DHT22;5201;48.776;9.128;2022-12-07T00:59:44;5.50;99.90
10312;DHT22;5201;48.776;9.128;2022-12-07T01:02:10;5.50;99.90
10312;DHT22;5201;48.776;9.128;2022-12-07T01:04:35;5.50;99.90
10312;DHT22;5201;48.776;9.128;2022-12-07T01:07:01;5.40;99.90
10312;DHT22;5201;48.776;9.128;2022-12-07T01:09:26;5.40;99.90
10312;DHT22;5201;48.776;9.128;2022-12-07T01:11:52;5.30;99.90
10312;DHT22;5201;48.776;9.128;2022-12-07T01:14:17;5.50;99.90
10312;DHT22;5201;48.776;9.128;2022-12-07T01:16:43;5.40;99.90
10312;DHT22;5201;48.776;9.128;2022-12-07T01:19:09;5.50;99.90
10312;DHT22;5201;48.776;9.128;2022-12-07T01:21:35;5.10;99.90
10312;DHT22;5201;48.776;9.128;2022-12-07T01:24:04;5.20;99.90
10312;DHT22;5201;48.776;9.128;2022-12-07T01:26:30;5.20;99.90
10312;DHT22;5201;48.776;9.128;2022-12-07T01:28:56;5.10;99.90
10312;DHT22;5201;48.776;9.128;2022-12-07T01:31:25;5.00;99.90
10312;DHT22;5201;48.776;9.128;2022-12-07T01:33:53;5.00;99.90
10312;DHT22;5201;48.776;9.128;2022-12-07T01:36:24;4.90;99.90
10312;DHT22;5201;48.776;9.128;2022-12-07T01:38:53;5.30;99.90
10312;DHT22;5201;48.776;9.128;2022-12-07T01:41:22;5.30;99.90
10312;DHT22;5201;48.776;9.128;2022-12-07T01:46:49;5.50;99.90
10312;DHT22;5201;48.776;9.128;2022-12-07T01:49:36;5.40;99.90
10312;DHT22;5201;48.776;9.128;2022-12-07T01:54:44;5.70;99.90
10312;DHT22;5201;48.776;9.128;2022-12-07T01:57:12;5.90;99.90
10312;DHT22;5201;48.776;9.128;2022-12-07T01:59:38;5.80;99.90
10312;DHT22;5201;48.776;9.128;2022-12-07T02:02:12;8.30;99.90
10312;DHT22;5201;48.776;9.128;2022-12-07T02:04:41;5.80;99.90
10312;DHT22;5201;48.776;9.128;2022-12-07T02:07:07;5.70;99.90
10312;DHT22;5201;48.776;9.128;2022-12-07T02:09:33;5.60;99.90
10312;DHT22;5201;48.776;9.128;2022-12-07T02:11:58;5.60;99.90
10312;DHT22;5201;48.776;9.128;2022-12-07T02:14:24;5.60;99.90
10312;DHT22;5201;48.776;9.128;2022-12-07T02:20:17;5.60;99.90
10312;DHT22;5201;48.776;9.128;2022-12-07T02:23:12;5.80;99.90
10312;DHT22;5201;48.776;9.128;2022-12-07T02:31:30;5.80;99.90
10312;DHT22;5201;48.776;9.128;2022-12-07T02:34:09;5.90;99.90
10312;DHT22;5201;48.776;9.128;2022-12-07T02:36:45;6.00;99.90
10312;DHT22;5201;48.776;9.128;2022-12-07T02:40:03;5.80;99.90
10312;DHT22;5201;48.776;9.128;2022-12-07T02:42:15;5.90;99.90
10312;DHT22;5201;48.776;9.128;2022-12-07T02:44:44;6.00;99.90
10312;DHT22;5201;48.776;9.128;2022-12-07T02:47:13;6.00;99.90
10312;DHT22;5201;48.776;9.128;2022-12-07T02:49:39;6.00;99.90
10312;DHT22;5201;48.776;9.128;2022-12-07T02:52:05;6.80;99.90
10312;DHT22;5201;48.776;9.128;2022-12-07T02:54:31;6.10;99.90
10312;DHT22;5201;48.776;9.128;2022-12-07T02:57:29;6.00;99.90
10312;DHT22;5201;48.776;9.128;2022-12-07T03:00:18;5.90;99.90
10312;DHT22;5201;48.776;9.128;2022-12-07T03:13:41;5.60;99.90
10312;DHT22;5201;48.776;9.128;2022-12-07T03:17:13;5.60;99.90
10312;DHT22;5201;48.776;9.128;2022-12-07T03:19:11;5.80;99.90
10312;DHT22;5201;48.776;9.128;2022-12-07T03:21:44;5.70;99.90
10312;DHT22;5201;48.776;9.128;2022-12-07T03:24:18;5.50;99.90
10312;DHT22;5201;48.776;9.128;2022-12-07T03:26:55;5.40;99.90
10312;DHT22;5201;48.776;9.128;2022-12-07T03:29:31;5.20;99.90
10312;DHT22;5201;48.776;9.128;2022-12-07T03:35:16;5.50;99.90
10312;DHT22;5201;48.776;9.128;2022-12-07T03:37:47;5.80;99.90
10312;DHT22;5201;48.776;9.128;2022-12-07T03:40:24;5.20;99.90
10312;DHT22;5201;48.776;9.128;2022-12-07T03:42:52;5.20;99.90
10312;DHT22;5201;48.776;9.128;2022-12-07T03:45:24;5.80;99.90
10312;DHT22;5201;48.776;9.128;2022-12-07T03:50:45;5.50;99.90
10312;DHT22;5201;48.776;9.128;2022-12-07T03:55:54;5.50;99.90
10312;DHT22;5201;48.776;9.128;2022-12-07T03:58:22;5.30;99.90
10312;DHT22;5201;48.776;9.128;2022-12-07T04:00:50;5.40;99.90
10312;DHT22;5201;48.776;9.128;2022-12-07T04:03:16;6.00;99.90
10312;DHT22;5201;48.776;9.128;2022-12-07T04:05:42;5.30;99.90
10312;DHT22;5201;48.776;9.128;2022-12-07T04:08:08;5.30;99.90
10312;DHT22;5201;48.776;9.128;2022-12-07T04:10:34;5.30;99.90
10312;DHT22;5201;48.776;9.128;2022-12-07T04:13:00;4.90;99.90
10312;DHT22;5201;48.776;9.128;2022-12-07T04:15:26;5.10;99.90
10312;DHT22;5201;48.776;9.128;2022-12-07T04:17:52;5.10;99.90
10312;DHT22;5201;48.776;9.128;2022-12-07T04:20:17;5.10;99.90
10312;DHT22;5201;48.776;9.128;2022-12-07T04:22:43;5.10;99.90
10312;DHT22;5201;48.776;9.128;2022-12-07T04:25:11;4.90;99.90
10312;DHT22;5201;48.776;9.128;2022-12-07T04:27:37;4.80;99.90
10312;DHT22;5201;48.776;9.128;2022-12-07T04:30:04;4.80;99.90
10312;DHT22;5201;48.776;9.128;2022-12-07T04:32:30;4.90;99.90
10312;DHT22;5201;48.776;9.128;2022-12-07T04:34:55;4.80;99.90
10312;DHT22;5201;48.776;9.128;2022-12-07T04:37:21;4.60;99.90
10312;DHT22;5201;48.776;9.128;2022-12-07T04:39:47;4.50;99.90
10312;DHT22;5201;48.776;9.128;2022-12-07T04:42:13;4.60;99.90
10312;DHT22;5201;48.776;9.128;2022-12-07T04:44:39;4.50;99.90
10312;DHT22;5201;48.776;9.128;2022-12-07T04:47:04;4.60;99.90
10312;DHT22;5201;48.776;9.128;2022-12-07T04:49:30;4.60;99.90
10312;DHT22;5201;48.776;9.128;2022-12-07T04:51:56;4.60;99.90
10312;DHT22;5201;48.776;9.128;2022-12-07T04:54:21;4.60;99.90
10312;DHT22;5201;48.776;9.128;2022-12-07T04:56:47;4.50;99.90
10312;DHT22;5201;48.776;9.128;2022-12-07T04:59:14;4.50;99.90
10312;DHT22;5201;48.776;9.128;2022-12-07T05:01:40;4.50;99.90
10312;DHT22;5201;48.776;9.128;2022-12-07T05:04:06;4.40;99.90
10312;DHT22;5201;48.776;9.128;2022-12-07T05:06:31;4.40;99.90
10312;DHT22;5201;48.776;9.128;2022-12-07T05:08:57;4.60;99.90
10312;DHT22;5201;48.776;9.128;2022-12-07T05:11:23;4.60;99.90
10312;DHT22;5201;48.776;9.128;2022-12-07T05:14:13;4.70;99.90
10312;DHT22;5201;48.776;9.128;2022-12-07T05:16:39;4.50;99.90
10312;DHT22;5201;48.776;9.128;2022-12-07T05:19:06;4.80;99.90
10312;DHT22;5201;48.776;9.128;2022-12-07T05:21:32;4.80;99.90
10312;DHT22;5201;48.776;9.128;2022-12-07T05:23:57;4.90;99.90
10312;DHT22;5201;48.776;9.128;2022-12-07T05:26:23;5.00;99.90
10312;DHT22;5201;48.776;9.128;2022-12-07T05:28:53;5.10;99.90
10312;DHT22;5201;48.776;9.128;2022-12-07T05:31:19;4.90;99.90
10312;DHT22;5201;48.776;9.128;2022-12-07T05:33:45;4.60;99.90
10312;DHT22;5201;48.776;9.128;2022-12-07T05:36:13;4.10;99.90
10312;DHT22;5201;48.776;9.128;2022-12-07T05:38:38;4.10;99.90
10312;DHT22;5201;48.776;9.128;2022-12-07T05:41:05;3.30;99.90
10312;DHT22;5201;48.776;9.128;2022-12-07T05:43:31;3.40;99.90
10312;DHT22;5201;48.776;9.128;2022-12-07T05:45:57;3.90;99.90
10312;DHT22;5201;48.776;9.128;2022-12-07T05:48:23;4.10;99.90
10312;DHT22;5201;48.776;9.128;2022-12-07T05:50:50;3.90;99.90
10312;DHT22;5201;48.776;9.128;2022-12-07T05:53:16;4.00;99.90
10312;DHT22;5201;48.776;9.128;2022-12-07T05:55:42;4.10;99.90
10312;DHT22;5201;48.776;9.128;2022-12-07T05:58:08;4.20;99.90
10312;DHT22;5201;48.776;9.128;2022-12-07T06:00:54;4.40;99.90
10312;DHT22;5201;48.776;9.128;2022-12-07T06:03:20;4.50;99.90
10312;DHT22;5201;48.776;9.128;2022-12-07T06:05:46;4.40;99.90
10312;DHT22;5201;48.776;9.128;2022-12-07T06:08:11;4.50;99.90
10312;DHT22;5201;48.776;9.128;2022-12-07T06:10:37;5.00;99.90
10312;DHT22;5201;48.776;9.128;2022-12-07T06:13:02;4.60;99.90
10312;DHT22;5201;48.776;9.128;2022-12-07T06:15:28;4.60;99.90
10312;DHT22;5201;48.776;9.128;2022-12-07T06:17:53;4.60;99.90
10312;DHT22;5201;48.776;9.128;2022-12-07T06:20:19;4.40;99.90
10312;DHT22;5201;48.776;9.128;2022-12-07T06:22:47;4.40;99.90
10312;DHT22;5201;48.776;9.128;2022-12-07T06:25:13;4.30;99.90
10312;DHT22;5201;48.776;9.128;2022-12-07T06:27:38;4.10;99.90
10312;DHT22;5201;48.776;9.128;2022-12-07T06:30:04;3.80;99.90
10312;DHT22;5201;48.776;9.128;2022-12-07T06:32:33;4.10;99.90
10312;DHT22;5201;48.776;9.128;2022-12-07T06:35:00;4.60;99.90
10312;DHT22;5201;48.776;9.128;2022-12-07T06:37:26;4.70;99.90
10312;DHT22;5201;48.776;9.128;2022-12-07T06:39:51;4.00;99.90
10312;DHT22;5201;48.776;9.128;2022-12-07T06:42:17;4.80;99.90
10312;DHT22;5201;48.776;9.128;2022-12-07T06:44:42;4.70;99.90
10312;DHT22;5201;48.776;9.128;2022-12-07T06:47:08;4.80;99.90
10312;DHT22;5201;48.776;9.128;2022-12-07T06:49:34;4.80;99.90
10312;DHT22;5201;48.776;9.128;2022-12-07T06:52:00;4.90;99.90
10312;DHT22;5201;48.776;9.128;2022-12-07T06:54:26;4.80;99.90
10312;DHT22;5201;48.776;9.128;2022-12-07T06:56:51;4.50;99.90
10312;DHT22;5201;48.776;9.128;2022-12-07T06:59:23;4.30;99.90
10312;DHT22;5201;48.776;9.128;2022-12-07T07:01:48;4.30;99.90
10312;DHT22;5201;48.776;9.128;2022-12-07T07:04:14;4.20;99.90
10312;DHT22;5201;48.776;9.128;2022-12-07T07:06:39;4.30;99.90
10312;DHT22;5201;48.776;9.128;2022-12-07T07:09:05;4.20;99.90
10312;DHT22;5201;48.776;9.128;2022-12-07T07:11:31;4.50;99.90
10312;DHT22;5201;48.776;9.128;2022-12-07T07:13:56;4.70;99.90
10312;DHT22;5201;48.776;9.128;2022-12-07T07:16:24;4.80;99.90
10312;DHT22;5201;48.776;9.128;2022-12-07T07:18:50;4.80;99.90
10312;DHT22;5201;48.776;9.128;2022-12-07T07:21:15;4.80;99.90
10312;DHT22;5201;48.776;9.128;2022-12-07T07:23:41;4.80;99.90
10312;DHT22;5201;48.776;9.128;2022-12-07T07:26:06;4.60;99.90
10312;DHT22;5201;48.776;9.128;2022-12-07T07:28:32;4.60;99.90
10312;DHT22;5201;48.776;9.128;2022-12-07T07:30:58;5.30;99.90
10312;DHT22;5201;48.776;9.128;2022-12-07T07:33:23;4.60;99.90
10312;DHT22;5201;48.776;9.128;2022-12-07T07:35:49;4.50;99.90
10312;DHT22;5201;48.776;9.128;2022-12-07T07:38:14;4.60;99.90
10312;DHT22;5201;48.776;9.128;2022-12-07T07:40:40;4.60;99.90
10312;DHT22;5201;48.776;9.128;2022-12-07T07:43:05;4.50;99.90
10312;DHT22;5201;48.776;9.128;2022-12-07T07:45:31;4.70;99.90
10312;DHT22;5201;48.776;9.128;2022-12-07T07:47:57;4.80;99.90
10312;DHT22;5201;48.776;9.128;2022-12-07T07:50:22;5.00;99.90
10312;DHT22;5201;48.776;9.128;2022-12-07T07:52:48;5.00;99.90
10312;DHT22;5201;48.776;9.128;2022-12-07T07:55:13;5.80;99.90
10312;DHT22;5201;48.776;9.128;2022-12-07T07:57:39;5.10;99.90
10312;DHT22;5201;48.776;9.128;2022-12-07T08:00:08;4.90;99.90
10312;DHT22;5201;48.776;9.128;2022-12-07T08:02:34;5.00;99.90
10312;DHT22;5201;48.776;9.128;2022-12-07T08:05:00;5.00;99.90
10312;DHT22;5201;48.776;9.128;2022-12-07T08:07:27;5.00;99.90
10312;DHT22;5201;48.776;9.128;2022-12-07T08:09:53;5.10;99.90
10312;DHT22;5201;48.776;9.128;2022-12-07T08:12:18;5.10;99.90
10312;DHT22;5201;48.776;9.128;2022-12-07T08:14:44;5.00;99.90
10312;DHT22;5201;48.776;9.128;2022-12-07T08:17:09;5.10;99.90
10312;DHT22;5201;48.776;9.128;2022-12-07T08:19:35;4.90;99.90
10312;DHT22;5201;48.776;9.128;2022-12-07T08:22:00;4.70;99.90
10312;DHT22;5201;48.776;9.128;2022-12-07T08:24:26;4.40;99.90
10312;DHT22;5201;48.776;9.128;2022-12-07T08:26:52;4.40;99.90
10312;DHT22;5201;48.776;9.128;2022-12-07T08:29:17;4.20;99.90
10312;DHT22;5201;48.776;9.128;2022-12-07T08:31:46;4.40;99.90
10312;DHT22;5201;48.776;9.128;2022-12-07T08:34:13;4.70;99.90
10312;DHT22;5201;48.776;9.128;2022-12-07T08:36:39;4.50;99.90
10312;DHT22;5201;48.776;9.128;2022-12-07T08:39:05;4.50;99.90
10312;DHT22;5201;48.776;9.128;2022-12-07T08:41:40;4.80;99.90
10312;DHT22;5201;48.776;9.128;2022-12-07T08:44:05;4.90;99.90
10312;DHT22;5201;48.776;9.128;2022-12-07T08:46:35;4.90;99.90
10312;DHT22;5201;48.776;9.128;2022-12-07T08:49:12;4.90;99.90
10312;DHT22;5201;48.776;9.128;2022-12-07T08:51:39;4.90;99.90
10312;DHT22;5201;48.776;9.128;2022-12-07T08:54:07;4.90;99.90
10312;DHT22;5201;48.776;9.128;2022-12-07T08:56:34;4.60;99.90
10312;DHT22;5201;48.776;9.128;2022-12-07T08:59:00;4.60;99.90
10312;DHT22;5201;48.776;9.128;2022-12-07T09:01:26;4.60;99.90
10312;DHT22;5201;48.776;9.128;2022-12-07T09:03:52;4.70;99.90
10312;DHT22;5201;48.776;9.128;2022-12-07T09:06:18;4.90;99.90
10312;DHT22;5201;48.776;9.128;2022-12-07T09:08:46;5.10;99.90
10312;DHT22;5201;48.776;9.128;2022-12-07T09:11:12;5.00;99.90
10312;DHT22;5201;48.776;9.128;2022-12-07T09:13:38;6.00;99.90
10312;DHT22;5201;48.776;9.128;2022-12-07T09:16:04;6.10;99.90
10312;DHT22;5201;48.776;9.128;2022-12-07T09:18:30;5.50;99.90
10312;DHT22;5201;48.776;9.128;2022-12-07T09:20:56;5.40;99.90
10312;DHT22;5201;48.776;9.128;2022-12-07T09:23:22;5.20;99.90
10312;DHT22;5201;48.776;9.128;2022-12-07T09:25:48;5.10;99.90
10312;DHT22;5201;48.776;9.128;2022-12-07T09:28:13;5.30;99.90
10312;DHT22;5201;48.776;9.128;2022-12-07T09:30:39;5.30;99.90
10312;DHT22;5201;48.776;9.128;2022-12-07T09:33:10;5.40;99.90
10312;DHT22;5201;48.776;9.128;2022-12-07T09:35:35;5.60;99.90
10312;DHT22;5201;48.776;9.128;2022-12-07T09:38:01;5.70;99.90
10312;DHT22;5201;48.776;9.128;2022-12-07T09:40:27;5.50;99.90
10312;DHT22;5201;48.776;9.128;2022-12-07T09:42:54;5.50;99.90
10312;DHT22;5201;48.776;9.128;2022-12-07T09:45:30;5.50;99.90
10312;DHT22;5201;48.776;9.128;2022-12-07T09:47:58;6.10;99.90
10312;DHT22;5201;48.776;9.128;2022-12-07T09:50:27;5.70;99.90
10312;DHT22;5201;48.776;9.128;2022-12-07T09:52:55;5.80;99.90
10312;DHT22;5201;48.776;9.128;2022-12-07T09:55:29;5.90;99.90
10312;DHT22;5201;48.776;9.128;2022-12-07T09:57:57;6.30;99.90
10312;DHT22;5201;48.776;9.128;2022-12-07T10:00:23;5.80;99.90
10312;DHT22;5201;48.776;9.128;2022-12-07T10:05:48;5.90;99.90
10312;DHT22;5201;48.776;9.128;2022-12-07T10:08:14;6.10;99.90
10312;DHT22;5201;48.776;9.128;2022-12-07T10:10:42;6.20;99.90
10312;DHT22;5201;48.776;9.128;2022-12-07T10:13:19;6.10;99.90
10312;DHT22;5201;48.776;9.128;2022-12-07T10:15:56;6.20;99.90
10312;DHT22;5201;48.776;9.128;2022-12-07T10:21:04;6.10;99.90
10312;DHT22;5201;48.776;9.128;2022-12-07T10:23:33;6.20;99.90
10312;DHT22;5201;48.776;9.128;2022-12-07T10:25:59;6.10;99.90
10312;DHT22;5201;48.776;9.128;2022-12-07T10:28:34;6.30;99.90
10312;DHT22;5201;48.776;9.128;2022-12-07T10:31:03;6.40;99.90
10312;DHT22;5201;48.776;9.128;2022-12-07T10:33:58;6.80;99.90
10312;DHT22;5201;48.776;9.128;2022-12-07T10:39:14;6.40;99.90
10312;DHT22;5201;48.776;9.128;2022-12-07T10:41:58;6.30;99.90
10312;DHT22;5201;48.776;9.128;2022-12-07T10:44:26;6.50;99.90
10312;DHT22;5201;48.776;9.128;2022-12-07T10:47:19;6.60;99.90
10312;DHT22;5201;48.776;9.128;2022-12-07T10:50:05;6.60;99.90
10312;DHT22;5201;48.776;9.128;2022-12-07T10:58:43;6.60;99.90
10312;DHT22;5201;48.776;9.128;2022-12-07T11:06:51;6.60;99.90
10312;DHT22;5201;48.776;9.128;2022-12-07T11:14:48;6.40;99.90
10312;DHT22;5201;48.776;9.128;2022-12-07T11:17:36;6.50;99.90
10312;DHT22;5201;48.776;9.128;2022-12-07T11:20:39;6.60;99.90
10312;DHT22;5201;48.776;9.128;2022-12-07T11:32:10;6.50;99.90
10312;DHT22;5201;48.776;9.128;2022-12-07T11:37:41;6.50;99.90
10312;DHT22;5201;48.776;9.128;2022-12-07T11:43:06;6.50;99.90
10312;DHT22;5201;48.776;9.128;2022-12-07T11:45:37;6.60;99.90
10312;DHT22;5201;48.776;9.128;2022-12-07T11:50:42;6.60;99.90
10312;DHT22;5201;48.776;9.128;2022-12-07T11:53:31;6.60;99.90
10312;DHT22;5201;48.776;9.128;2022-12-07T11:58:49;6.60;99.90
10312;DHT22;5201;48.776;9.128;2022-12-07T12:01:32;6.40;99.90
10312;DHT22;5201;48.776;9.128;2022-12-07T12:06:45;6.60;99.90
10312;DHT22;5201;48.776;9.128;2022-12-07T12:09:34;6.10;99.90
10312;DHT22;5201;48.776;9.128;2022-12-07T12:12:27;5.80;99.90
10312;DHT22;5201;48.776;9.128;2022-12-07T12:15:09;5.40;99.90
10312;DHT22;5201;48.776;9.128;2022-12-07T12:17:50;5.10;99.90
10312;DHT22;5201;48.776;9.128;2022-12-07T12:20:36;4.80;99.90
10312;DHT22;5201;48.776;9.128;2022-12-07T12:23:12;4.70;99.90
10312;DHT22;5201;48.776;9.128;2022-12-07T12:28:15;5.00;99.90
10312;DHT22;5201;48.776;9.128;2022-12-07T12:30:43;4.90;99.90
10312;DHT22;5201;48.776;9.128;2022-12-07T12:33:16;4.70;99.90
10312;DHT22;5201;48.776;9.128;2022-12-07T12:35:45;4.80;99.90
10312;DHT22;5201;48.776;9.128;2022-12-07T12:38:34;4.70;99.90
10312;DHT22;5201;48.776;9.128;2022-12-07T12:52:45;5.70;99.90
10312;DHT22;5201;48.776;9.128;2022-12-07T12:55:13;5.90;99.90
10312;DHT22;5201;48.776;9.128;2022-12-07T12:57:40;6.10;99.90
10312;DHT22;5201;48.776;9.128;2022-12-07T13:00:20;6.10;99.90
10312;DHT22;5201;48.776;9.128;2022-12-07T13:05:16;6.20;99.90
10312;DHT22;5201;48.776;9.128;2022-12-07T13:18:35;6.00;99.90
10312;DHT22;5201;48.776;9.128;2022-12-07T13:31:40;6.20;99.90
10312;DHT22;5201;48.776;9.128;2022-12-07T13:34:29;6.10;99.90
10312;DHT22;5201;48.776;9.128;2022-12-07T13:37:02;6.20;99.90
10312;DHT22;5201;48.776;9.128;2022-12-07T13:39:33;6.30;99.90
10312;DHT22;5201;48.776;9.128;2022-12-07T13:42:11;6.30;99.90
10312;DHT22;5201;48.776;9.128;2022-12-07T13:44:49;6.60;99.90
10312;DHT22;5201;48.776;9.128;2022-12-07T13:49:51;6.00;99.90
10312;DHT22;5201;48.776;9.128;2022-12-07T13:54:49;6.20;99.90
10312;DHT22;5201;48.776;9.128;2022-12-07T13:57:20;6.30;99.90
10312;DHT22;5201;48.776;9.128;2022-12-07T13:59:46;6.30;99.90
10312;DHT22;5201;48.776;9.128;2022-12-07T14:02:30;6.40;99.90
10312;DHT22;5201;48.776;9.128;2022-12-07T14:10:39;6.70;99.90
10312;DHT22;5201;48.776;9.128;2022-12-07T14:16:19;6.50;99.90
10312;DHT22;5201;48.776;9.128;2022-12-07T14:18:46;6.40;99.90
10312;DHT22;5201;48.776;9.128;2022-12-07T14:21:33;6.30;99.90
10312;DHT22;5201;48.776;9.128;2022-12-07T14:26:37;6.50;99.90
10312;DHT22;5201;48.776;9.128;2022-12-07T14:31:51;6.30;99.90
10312;DHT22;5201;48.776;9.128;2022-12-07T14:34:20;6.30;99.90
10312;DHT22;5201;48.776;9.128;2022-12-07T14:36:46;6.40;99.90
10312;DHT22;5201;48.776;9.128;2022-12-07T14:39:11;6.40;99.90
10312;DHT22;5201;48.776;9.128;2022-12-07T14:41:37;6.50;99.90
10312;DHT22;5201;48.776;9.128;2022-12-07T14:44:19;6.60;99.90
10312;DHT22;5201;48.776;9.128;2022-12-07T14:46:46;7.40;99.90
10312;DHT22;5201;48.776;9.128;2022-12-07T14:49:12;6.40;99.90
10312;DHT22;5201;48.776;9.128;2022-12-07T14:51:39;6.40;99.90
10312;DHT22;5201;48.776;9.128;2022-12-07T14:54:06;6.30;99.90
10312;DHT22;5201;48.776;9.128;2022-12-07T14:56:37;6.20;99.90
10312;DHT22;5201;48.776;9.128;2022-12-07T14:59:03;6.10;99.90
10312;DHT22;5201;48.776;9.128;2022-12-07T15:01:31;6.10;99.90
10312;DHT22;5201;48.776;9.128;2022-12-07T15:03:57;7.00;99.90
10312;DHT22;5201;48.776;9.128;2022-12-07T15:06:22;6.30;99.90
10312;DHT22;5201;48.776;9.128;2022-12-07T15:08:48;6.30;99.90
10312;DHT22;5201;48.776;9.128;2022-12-07T15:11:14;6.20;99.90
10312;DHT22;5201;48.776;9.128;2022-12-07T15:13:40;5.70;99.90
10312;DHT22;5201;48.776;9.128;2022-12-07T15:16:24;5.90;99.90
10312;DHT22;5201;48.776;9.128;2022-12-07T15:18:50;6.10;99.90
10312;DHT22;5201;48.776;9.128;2022-12-07T15:21:16;6.00;99.90
10312;DHT22;5201;48.776;9.128;2022-12-07T15:23:42;6.00;99.90
10312;DHT22;5201;48.776;9.128;2022-12-07T15:26:10;5.60;99.90
10312;DHT22;5201;48.776;9.128;2022-12-07T15:28:36;5.60;99.90
10312;DHT22;5201;48.776;9.128;2022-12-07T15:31:01;5.80;99.90
10312;DHT22;5201;48.776;9.128;2022-12-07T15:33:27;5.20;99.90
10312;DHT22;5201;48.776;9.128;2022-12-07T15:35:52;5.10;99.90
10312;DHT22;5201;48.776;9.128;2022-12-07T15:38:18;5.10;99.90
10312;DHT22;5201;48.776;9.128;2022-12-07T15:40:46;5.30;99.90
10312;DHT22;5201;48.776;9.128;2022-12-07T15:43:12;5.30;99.90
10312;DHT22;5201;48.776;9.128;2022-12-07T15:45:56;5.10;99.90
10312;DHT22;5201;48.776;9.128;2022-12-07T15:48:22;5.10;99.90
10312;DHT22;5201;48.776;9.128;2022-12-07T15:50:48;5.00;99.90
10312;DHT22;5201;48.776;9.128;2022-12-07T15:53:13;4.90;99.90
10312;DHT22;5201;48.776;9.128;2022-12-07T15:55:40;5.00;99.90
10312;DHT22;5201;48.776;9.128;2022-12-07T15:58:06;5.20;99.90
10312;DHT22;5201;48.776;9.128;2022-12-07T16:00:31;5.30;99.90
10312;DHT22;5201;48.776;9.128;2022-12-07T16:02:57;5.30;99.90
10312;DHT22;5201;48.776;9.128;2022-12-07T16:05:23;5.50;99.90
10312;DHT22;5201;48.776;9.128;2022-12-07T16:07:48;6.30;99.90
10312;DHT22;5201;48.776;9.128;2022-12-07T16:10:14;5.60;99.90
10312;DHT22;5201;48.776;9.128;2022-12-07T16:12:40;5.70;99.90
10312;DHT22;5201;48.776;9.128;2022-12-07T16:15:08;7.80;99.90
10312;DHT22;5201;48.776;9.128;2022-12-07T16:17:34;5.60;99.90
10312;DHT22;5201;48.776;9.128;2022-12-07T16:20:00;5.50;99.90
10312;DHT22;5201;48.776;9.128;2022-12-07T16:22:25;5.50;99.90
10312;DHT22;5201;48.776;9.128;2022-12-07T16:24:51;5.40;99.90
10312;DHT22;5201;48.776;9.128;2022-12-07T16:27:16;5.50;99.90
10312;DHT22;5201;48.776;9.128;2022-12-07T16:29:42;5.50;99.90
10312;DHT22;5201;48.776;9.128;2022-12-07T16:32:08;5.50;99.90
10312;DHT22;5201;48.776;9.128;2022-12-07T16:34:33;5.20;99.90
10312;DHT22;5201;48.776;9.128;2022-12-07T16:36:59;5.20;99.90
10312;DHT22;5201;48.776;9.128;2022-12-07T16:39:24;5.10;99.90
10312;DHT22;5201;48.776;9.128;2022-12-07T16:41:50;5.10;99.90
10312;DHT22;5201;48.776;9.128;2022-12-07T16:44:18;5.20;99.90
10312;DHT22;5201;48.776;9.128;2022-12-07T16:46:43;5.20;99.90
10312;DHT22;5201;48.776;9.128;2022-12-07T16:49:15;5.10;99.90
10312;DHT22;5201;48.776;9.128;2022-12-07T16:51:42;4.90;99.90
10312;DHT22;5201;48.776;9.128;2022-12-07T16:54:12;4.90;99.90
10312;DHT22;5201;48.776;9.128;2022-12-07T16:56:38;5.00;99.90
10312;DHT22;5201;48.776;9.128;2022-12-07T16:59:04;5.10;99.90
10312;DHT22;5201;48.776;9.128;2022-12-07T17:01:29;5.20;99.90
10312;DHT22;5201;48.776;9.128;2022-12-07T17:03:57;5.10;99.90
10312;DHT22;5201;48.776;9.128;2022-12-07T17:06:25;5.00;99.90
10312;DHT22;5201;48.776;9.128;2022-12-07T17:08:52;5.10;99.90
10312;DHT22;5201;48.776;9.128;2022-12-07T17:11:20;5.00;99.90
10312;DHT22;5201;48.776;9.128;2022-12-07T17:13:46;4.90;99.90
10312;DHT22;5201;48.776;9.128;2022-12-07T17:16:33;4.80;99.90
10312;DHT22;5201;48.776;9.128;2022-12-07T17:19:04;4.80;99.90
10312;DHT22;5201;48.776;9.128;2022-12-07T17:21:30;6.30;99.90
10312;DHT22;5201;48.776;9.128;2022-12-07T17:23:58;5.40;99.90
10312;DHT22;5201;48.776;9.128;2022-12-07T17:26:25;4.90;99.90
10312;DHT22;5201;48.776;9.128;2022-12-07T17:28:51;5.00;99.90
10312;DHT22;5201;48.776;9.128;2022-12-07T17:31:19;5.00;99.90
10312;DHT22;5201;48.776;9.128;2022-12-07T17:33:46;5.00;99.90
10312;DHT22;5201;48.776;9.128;2022-12-07T17:36:17;5.10;99.90
10312;DHT22;5201;48.776;9.128;2022-12-07T17:38:43;5.20;99.90
10312;DHT22;5201;48.776;9.128;2022-12-07T17:41:11;5.00;99.90
10312;DHT22;5201;48.776;9.128;2022-12-07T17:43:37;4.80;99.90
10312;DHT22;5201;48.776;9.128;2022-12-07T17:46:08;4.80;99.90
10312;DHT22;5201;48.776;9.128;2022-12-07T17:48:34;5.00;99.90
10312;DHT22;5201;48.776;9.128;2022-12-07T17:51:00;5.00;99.90
10312;DHT22;5201;48.776;9.128;2022-12-07T17:53:48;5.00;99.90
10312;DHT22;5201;48.776;9.128;2022-12-07T17:56:13;4.90;99.90
10312;DHT22;5201;48.776;9.128;2022-12-07T17:58:39;4.80;99.90
10312;DHT22;5201;48.776;9.128;2022-12-07T18:01:08;4.80;99.90
10312;DHT22;5201;48.776;9.128;2022-12-07T18:03:34;4.60;99.90
10312;DHT22;5201;48.776;9.128;2022-12-07T18:06:00;4.90;99.90
10312;DHT22;5201;48.776;9.128;2022-12-07T18:08:26;5.00;99.90
10312;DHT22;5201;48.776;9.128;2022-12-07T18:10:58;5.00;99.90
10312;DHT22;5201;48.776;9.128;2022-12-07T18:13:23;5.10;99.90
10312;DHT22;5201;48.776;9.128;2022-12-07T18:16:24;5.00;99.90
10312;DHT22;5201;48.776;9.128;2022-12-07T18:18:50;5.10;99.90
10312;DHT22;5201;48.776;9.128;2022-12-07T18:21:21;5.00;99.90
10312;DHT22;5201;48.776;9.128;2022-12-07T18:23:53;5.00;99.90
10312;DHT22;5201;48.776;9.128;2022-12-07T18:26:21;4.90;99.90
10312;DHT22;5201;48.776;9.128;2022-12-07T18:28:47;5.00;99.90
10312;DHT22;5201;48.776;9.128;2022-12-07T18:31:14;4.80;99.90
10312;DHT22;5201;48.776;9.128;2022-12-07T18:33:40;4.70;99.90